Flight Track Log - Related Links

Times and Time Zones

All times are in EDT time to prevent confusion due to time zone crossing. See the AWE948 flight status page for this flight to view local times or setup timezone preferences in your user account.

Time Position Orientation Groundspeed Altitude Reporting Facility
EDT Latitude Longitude Course Direction KTS MPH feet Rate Location/Type
Thu 06:00:15 PM 34.2774 -77.9233 249° West  Level FlightAware Approximate
Thu 06:01:15 PM 34.2667 -78.0308 165° South  Level FlightAware Approximate
Thu 06:02:01 PM 34.2453 -78.0239 272° West 252 290 4,400  Level Washington Center
Thu 06:03:02 PM 34.2475 -78.1169 270° West 276 318 7,300 2,421 Climbing Washington Center
Thu 06:06:46 PM 34.2469 -78.5267 269° West 366 421 15,900 2,345 Climbing Jacksonville Center
Thu 06:07:46 PM 34.2450 -78.6525 269° West 387 445 18,400 2,150 Climbing Jacksonville Center
Thu 06:08:46 PM 34.2431 -78.7856 268° West 393 452 20,200 1,233 Climbing Jacksonville Center
Thu 06:10:46 PM 34.2369 -79.0522 288° West 393 452 22,100 633 Climbing Jacksonville Center
Thu 06:11:46 PM 34.2700 -79.1764 296° West 393 452 22,100 -350 Level Jacksonville Center
Thu 06:12:46 PM 34.3194 -79.3000 292° West 399 459 21,400 -1,100 Descending Jacksonville Center
Thu 06:13:46 PM 34.3581 -79.4164 295° West 398 458 19,900 -1,450 Descending Jacksonville Center
Thu 06:14:46 PM 34.4053 -79.5381 295° West 383 441 18,500 -1,350 Descending Jacksonville Center
Thu 06:15:46 PM 34.4500 -79.6544 294° West 388 447 17,200 -1,450 Descending Jacksonville Center
Thu 06:16:46 PM 34.4969 -79.7814 292° West 388 447 15,600 -1,400 Descending Jacksonville Center
Thu 06:17:46 PM 34.5306 -79.8808 297° West 388 447 14,400 -1,260 Descending Jacksonville Center
Thu 06:18:26 PM 34.5650 -79.9644 294° West 367 422 13,500 -1,275 Descending FAA TRACON SMA TRACON (SMA)
Thu 06:19:06 PM 34.5919 -80.0375 295° West 363 418 12,700 -1,200 Descending FAA TRACON SMA TRACON (SMA)
Thu 06:19:46 PM 34.6206 -80.1133 294° West 358 412 11,900 -1,050 Descending FAA TRACON SMA TRACON (SMA)
Thu 06:20:26 PM 34.6450 -80.1803 295° West 353 406 11,300 -684 Descending FAA TRACON SMA TRACON (SMA)
Thu 06:21:05 PM 34.6728 -80.2542 294° West 348 400 11,000 -145 Descending FAA TRACON SMA TRACON (SMA)
Thu 06:21:49 PM 34.6989 -80.3269 310° West 304 350 11,100 75 Climbing FAA TRACON SMA TRACON (SMA)
Thu 06:22:25 PM 34.7272 -80.3678 314° West 296 341 11,100  Level FAA TRACON SMA TRACON (SMA)
Thu 06:23:06 PM 34.7664 -80.4169 315° West 292 336 11,100  Level FAA TRACON SMA TRACON (SMA)
Thu 06:23:45 PM 34.8022 -80.4600 315° West 292 336 11,100 -152 Level FAA TRACON SMA TRACON (SMA)
Thu 06:24:25 PM 34.8419 -80.5092 314° West 291 335 10,900 -593 Descending FAA TRACON SMA TRACON (SMA)
Thu 06:25:06 PM 34.8811 -80.5581 315° West 290 334 10,300 -889 Descending FAA TRACON SMA TRACON (SMA)
Thu 06:25:46 PM 34.9161 -80.6011 314° West 290 334 9,700 -900 Descending FAA TRACON SMA TRACON (SMA)
Thu 06:26:26 PM 34.9544 -80.6503 314° West 288 331 9,100 -450 Descending FAA TRACON SMA TRACON (SMA)
Thu 06:27:06 PM 34.9933 -80.6986 314° West 288 331 9,100  Level FAA TRACON SMA TRACON (SMA)
Thu 06:27:47 PM 35.0269 -80.7414 313° West 285 328 9,100  Level FAA TRACON SMA TRACON (SMA)
Thu 06:28:27 PM 35.0647 -80.7911 341° North 286 329 9,100  Level FAA TRACON SMA TRACON (SMA)
Thu 06:29:06 PM 35.1178 -80.8131 357° North 300 345 9,100 -228 Level FAA TRACON SMA TRACON (SMA)
Thu 06:29:46 PM 35.1694 -80.8167 357° North 303 349 8,800 -450 Descending FAA TRACON SMA TRACON (SMA)

Login

Don't have an account? Register now (free) for customized features, flight alerts, and more!